Time;durP1;ratioP1;P1;durP2;ratioP2;P2;SDS_P1;SDS_P2;PMS_P1;PMS_P2;Temp;Humidity;BMP_temperature;BMP_pressure;BME280_temperature;BME280_humidity;BME280_pressure;Samples;Min_cycle;Max_cycle;Signal;HPM_P1;HPM_P2
2022/12/07 00:01:27;;;;;;;;;;;;;;;3.06;99.50;99533.78;10161681;23;19935;-74
2022/12/07 00:05:29;;;;;;;;;;;;;;;3.02;99.27;99532.81;10173278;23;19966;-74
2022/12/07 00:09:41;;;;;;;;;;;;;;;2.99;99.52;99531.03;10174136;23;20447;-74
2022/12/07 00:14:06;;;;;;;;;;;;;;;2.97;99.34;99539.50;10171283;23;19925;-74
2022/12/07 00:18:09;;;;;;;;;;;;;;;2.98;99.60;99538.69;10157661;23;19924;-74
2022/12/07 00:22:12;;;;;;;;;;;;;;;2.97;99.54;99527.56;10173788;23;19924;-74
2022/12/07 00:26:20;;;;;;;;;;;;;;;2.95;99.41;99516.38;10135674;23;20248;-74
2022/12/07 00:30:23;;;;;;;;;;;;;;;2.93;99.40;99527.44;10163695;23;19925;-74
2022/12/07 06:53:37;;;;;;;;;;;;;;;2.87;99.73;99438.41;10175031;23;19924;-77
2022/12/07 06:57:40;;;;;;;;;;;;;;;2.86;99.61;99430.63;10175854;23;19929;-77
2022/12/07 07:01:43;;;;;;;;;;;;;;;2.87;99.88;99434.94;10149754;23;19987;-76
2022/12/07 07:05:46;;;;;;;;;;;;;;;2.88;100.00;99437.56;10175951;23;20019;-76
2022/12/07 07:10:01;;;;;;;;;;;;;;;2.93;99.87;99429.97;10178832;23;20248;-76
2022/12/07 07:14:25;;;;;;;;;;;;;;;2.96;100.00;99443.75;10153516;23;19939;-76
2022/12/07 07:18:28;;;;;;;;;;;;;;;3.00;100.00;99445.56;10150807;23;19931;-77
2022/12/07 07:22:31;;;;;;;;;;;;;;;3.02;100.00;99456.72;10176267;23;19924;-76
2022/12/07 07:26:36;;;;;;;;;;;;;;;3.07;100.00;99456.00;10175738;23;20004;-76
2022/12/07 07:30:38;;;;;;;;;;;;;;;3.10;100.00;99461.22;10174593;23;20097;-77
2022/12/07 07:34:46;;;;;;;;;;;;;;;3.14;100.00;99460.47;10177873;23;19951;-76
2022/12/07 07:39:21;;;;;;;;;;;;;;;3.17;100.00;99463.09;10178775;23;19928;-76
2022/12/07 07:43:39;;;;;;;;;;;;;;;3.15;100.00;99465.63;10177820;23;19924;-76
2022/12/07 07:47:46;;;;;;;;;;;;;;;3.21;99.91;99459.78;10174437;23;19959;-76
2022/12/07 07:51:50;;;;;;;;;;;;;;;3.22;100.00;99457.25;10123039;23;19928;-76
2022/12/07 07:56:07;;;;;;;;;;;;;;;3.27;99.92;99460.81;10155432;23;19924;-76
2022/12/07 08:00:33;;;;;;;;;;;;;;;3.32;99.69;99461.78;10154106;23;19983;-76
2022/12/07 08:04:45;;;;;;;;;;;;;;;3.38;99.72;99463.63;10175149;23;19943;-76
2022/12/07 08:09:05;;;;;;;;;;;;;;;3.43;99.74;99466.34;10146971;23;19932;-76
2022/12/07 08:13:11;;;;;;;;;;;;;;;3.45;99.32;99465.56;10174041;23;19924;-76
2022/12/07 08:17:18;;;;;;;;;;;;;;;3.48;99.37;99465.63;10191347;23;19932;-76
2022/12/07 08:21:26;;;;;;;;;;;;;;;3.53;99.39;99466.59;10174562;23;19924;-76
2022/12/07 08:26:05;;;;;;;;;;;;;;;3.59;99.22;99466.75;10160769;23;19925;-76
2022/12/07 08:30:09;;;;;;;;;;;;;;;3.62;98.65;99471.97;10144447;23;19924;-76
2022/12/07 08:34:15;;;;;;;;;;;;;;;3.67;98.82;99479.78;10175412;23;20338;-76
2022/12/07 08:38:32;;;;;;;;;;;;;;;3.70;98.41;99484.13;10151679;23;19928;-76
2022/12/07 08:42:49;;;;;;;;;;;;;;;3.75;98.30;99483.38;10173067;23;19981;-76
2022/12/07 08:47:17;;;;;;;;;;;;;;;3.81;98.20;99490.38;10173186;23;20008;-76
2022/12/07 08:51:23;;;;;;;;;;;;;;;3.83;97.85;99491.28;10190186;23;19991;-76
2022/12/07 08:55:34;;;;;;;;;;;;;;;3.86;98.08;99492.22;10223011;23;20011;-76
2022/12/07 08:59:39;;;;;;;;;;;;;;;3.87;97.57;99491.41;10195317;23;19924;-76
2022/12/07 09:04:05;;;;;;;;;;;;;;;3.89;97.32;99494.84;10200971;23;20275;-76
2022/12/07 09:08:14;;;;;;;;;;;;;;;3.88;96.79;99489.69;10218234;23;19963;-76
2022/12/07 09:12:19;;;;;;;;;;;;;;;3.89;96.92;99497.44;10193035;23;20216;-76
2022/12/07 09:16:21;;;;;;;;;;;;;;;3.95;96.70;99504.44;10195363;23;20019;-76
2022/12/07 09:20:41;;;;;;;;;;;;;;;4.02;97.04;99502.88;10181947;23;19924;-76
2022/12/07 09:24:47;;;;;;;;;;;;;;;4.06;96.76;99502.97;10220352;23;20220;-76
2022/12/07 09:28:56;;;;;;;;;;;;;;;4.08;96.75;99497.84;10193660;23;19924;-76
2022/12/07 09:33:09;;;;;;;;;;;;;;;4.10;96.43;99493.63;10194786;23;19987;-76
2022/12/07 09:37:22;;;;;;;;;;;;;;;4.11;96.59;99487.66;10225413;23;19982;-76
2022/12/07 09:41:34;;;;;;;;;;;;;;;4.12;95.89;99491.94;10195558;23;19924;-76
2022/12/07 09:45:53;;;;;;;;;;;;;;;4.10;95.65;99479.06;10223653;23;19947;-76
2022/12/07 09:50:18;;;;;;;;;;;;;;;4.14;95.71;99482.59;10198195;23;19934;-76
2022/12/07 09:54:24;;;;;;;;;;;;;;;4.12;95.70;99482.53;10199116;23;19924;-76
2022/12/07 09:58:28;;;;;;;;;;;;;;;4.21;95.77;99476.75;10196328;23;20614;-76
2022/12/07 10:02:59;;;;;;;;;;;;;;;4.29;95.62;99470.06;10220932;23;19935;-76
2022/12/07 10:07:14;;;;;;;;;;;;;;;4.38;95.63;99464.28;10221805;23;19967;-76
2022/12/07 10:11:20;;;;;;;;;;;;;;;4.43;95.22;99460.97;10219734;23;19978;-76
2022/12/07 10:15:51;;;;;;;;;;;;;;;4.52;95.04;99468.00;10222192;23;19951;-76
2022/12/07 10:20:12;;;;;;;;;;;;;;;4.58;94.75;99468.13;10219863;23;19946;-76
2022/12/07 10:24:15;;;;;;;;;;;;;;;4.64;94.56;99455.38;10194799;23;19936;-76
2022/12/07 10:28:18;;;;;;;;;;;;;;;4.67;94.24;99455.47;10194520;23;20440;-76
2022/12/07 10:32:30;;;;;;;;;;;;;;;4.69;93.46;99447.78;10189345;23;20281;-76
2022/12/07 11:04:13;;;;;;;;;;;;;;;5.13;90.15;99410.88;10355976;22;20350;-76
2022/12/07 11:08:16;;;;;;;;;;;;;;;5.20;90.07;99414.41;10326983;22;19924;-76
2022/12/07 11:12:31;;;;;;;;;;;;;;;5.29;89.68;99412.00;10283872;23;19931;-75
2022/12/07 11:16:38;;;;;;;;;;;;;;;5.33;88.56;99413.78;10286706;23;19923;-76
2022/12/07 11:20:58;;;;;;;;;;;;;;;5.35;87.27;99412.09;10312256;23;19932;-76
2022/12/07 11:25:24;;;;;;;;;;;;;;;5.37;87.41;99404.41;10286772;23;19923;-76
2022/12/07 11:29:49;;;;;;;;;;;;;;;5.31;85.93;99400.03;10326354;23;19957;-75
2022/12/07 11:33:58;;;;;;;;;;;;;;;5.30;86.59;99398.28;10337905;23;19927;-75
2022/12/07 11:38:26;;;;;;;;;;;;;;;5.31;86.83;99381.13;10340047;23;19924;-75
2022/12/07 11:42:39;;;;;;;;;;;;;;;5.29;84.99;99386.28;10313717;23;19994;-75
2022/12/07 11:47:15;;;;;;;;;;;;;;;5.25;83.66;99376.78;10306399;23;19931;-75
2022/12/07 11:51:24;;;;;;;;;;;;;;;5.25;82.90;99375.91;10322844;23;19983;-75
2022/12/07 11:56:03;;;;;;;;;;;;;;;5.25;82.93;99374.19;10331563;23;19980;-75
2022/12/07 12:00:15;;;;;;;;;;;;;;;5.27;83.14;99367.38;10275030;23;19954;-75
2022/12/07 12:04:26;;;;;;;;;;;;;;;5.23;82.53;99365.59;10275826;23;20390;-75
2022/12/07 12:08:34;;;;;;;;;;;;;;;5.23;83.42;99359.56;10299085;23;20582;-75
2022/12/07 12:13:10;;;;;;;;;;;;;;;5.14;82.24;99368.00;10304200;23;19938;-76
2022/12/07 12:18:00;;;;;;;;;;;;;;;5.11;83.01;99360.22;10305153;23;19970;-75
2022/12/07 12:22:09;;;;;;;;;;;;;;;5.08;82.78;99361.03;10298363;23;19934;-75
2022/12/07 12:26:27;;;;;;;;;;;;;;;5.10;82.65;99364.50;10317536;23;19927;-76
2022/12/07 12:30:37;;;;;;;;;;;;;;;5.09;81.45;99360.19;10297374;23;20222;-75
2022/12/07 12:35:02;;;;;;;;;;;;;;;5.14;82.01;99358.56;10326393;23;20385;-75
2022/12/07 12:39:14;;;;;;;;;;;;;;;5.15;81.57;99354.28;10297703;23;19934;-75
2022/12/07 12:43:37;;;;;;;;;;;;;;;5.12;80.70;99349.09;10272211;23;19923;-75
2022/12/07 12:47:54;;;;;;;;;;;;;;;5.10;81.04;99340.47;10297830;23;19934;-75
2022/12/07 12:52:20;;;;;;;;;;;;;;;5.11;80.22;99332.78;10296758;23;19977;-75
2022/12/07 12:56:28;;;;;;;;;;;;;;;5.13;80.96;99340.53;10323379;23;20007;-75
2022/12/07 13:00:32;;;;;;;;;;;;;;;5.15;81.47;99336.25;10287199;23;19923;-75
2022/12/07 13:04:39;;;;;;;;;;;;;;;5.16;82.02;99336.28;10323141;23;20549;-75
2022/12/07 13:08:41;;;;;;;;;;;;;;;5.16;82.77;99327.69;10296229;23;19924;-75
2022/12/07 13:12:56;;;;;;;;;;;;;;;5.14;81.31;99329.38;10296513;23;19946;-75
2022/12/07 13:17:03;;;;;;;;;;;;;;;5.13;82.08;99322.50;10297191;23;19923;-75
2022/12/07 13:21:08;;;;;;;;;;;;;;;5.13;82.17;99318.22;10320942;23;19931;-75
2022/12/07 13:25:18;;;;;;;;;;;;;;;5.14;82.18;99311.38;10297003;23;19927;-75
2022/12/07 13:29:25;;;;;;;;;;;;;;;5.12;82.70;99306.19;10272265;23;19928;-75
2022/12/07 13:33:45;;;;;;;;;;;;;;;5.12;83.24;99301.06;10323017;23;20314;-75
2022/12/07 13:37:47;;;;;;;;;;;;;;;5.10;83.37;99307.03;10296524;23;19985;-75
2022/12/07 13:41:56;;;;;;;;;;;;;;;5.09;83.84;99297.56;10296256;23;20187;-75
2022/12/07 13:46:00;;;;;;;;;;;;;;;5.07;83.13;99299.25;10296540;23;19924;-75
2022/12/07 13:50:21;;;;;;;;;;;;;;;5.06;84.04;99300.09;10271132;23;19923;-75
2022/12/07 13:54:26;;;;;;;;;;;;;;;5.05;84.20;99286.38;10297479;23;19923;-75
2022/12/07 13:58:33;;;;;;;;;;;;;;;5.02;84.29;99299.16;10271509;23;19924;-75
2022/12/07 14:02:36;;;;;;;;;;;;;;;5.00;84.49;99293.13;10297375;22;19924;-75
2022/12/07 14:06:50;;;;;;;;;;;;;;;5.00;84.52;99292.25;10270116;23;19928;-75
2022/12/07 14:11:01;;;;;;;;;;;;;;;5.00;85.05;99293.13;10320631;23;19924;-75
2022/12/07 14:15:19;;;;;;;;;;;;;;;4.97;84.49;99287.94;10270498;23;19955;-75
2022/12/07 14:19:43;;;;;;;;;;;;;;;4.97;85.39;99287.06;10296452;23;19923;-75
2022/12/07 14:24:08;;;;;;;;;;;;;;;4.95;85.71;99284.47;10271418;23;19973;-75
2022/12/07 14:28:29;;;;;;;;;;;;;;;4.94;85.63;99282.75;10327943;23;19954;-76
2022/12/07 14:32:48;;;;;;;;;;;;;;;4.91;85.28;99272.41;10273338;23;20261;-76
2022/12/07 14:36:51;;;;;;;;;;;;;;;4.92;85.32;99269.00;10322828;23;19990;-76
2022/12/07 14:41:50;;;;;;;;;;;;;;;4.92;86.13;99266.44;10319735;23;19970;-76
2022/12/07 14:45:28;;;;;;;;;;;;;;;4.96;86.55;99257.91;10295107;23;19997;-76
2022/12/07 14:49:38;;;;;;;;;;;;;;;4.96;86.96;99262.19;10294868;23;19924;-76
2022/12/07 14:53:43;;;;;;;;;;;;;;;4.97;86.96;99262.22;10295733;23;19924;-76
2022/12/07 14:58:13;;;;;;;;;;;;;;;4.94;87.06;99264.75;10325339;23;19927;-75
2022/12/07 15:02:23;;;;;;;;;;;;;;;4.88;86.55;99258.66;10294234;22;20106;-75
2022/12/07 15:06:33;;;;;;;;;;;;;;;4.88;86.49;99253.50;10320029;23;19923;-75
2022/12/07 15:10:38;;;;;;;;;;;;;;;4.84;85.69;99265.41;10268708;23;19919;-75
2022/12/07 15:14:42;;;;;;;;;;;;;;;4.80;85.15;99264.50;10294798;23;19927;-75
2022/12/07 15:18:44;;;;;;;;;;;;;;;4.79;85.28;99261.91;10322489;23;19920;-75
2022/12/07 15:23:08;;;;;;;;;;;;;;;4.75;85.10;99263.59;10298840;23;19951;-77
2022/12/07 15:27:18;;;;;;;;;;;;;;;4.72;84.48;99266.09;10304032;23;19927;-76
2022/12/07 15:31:21;;;;;;;;;;;;;;;4.69;84.81;99275.47;10301252;23;20295;-76
2022/12/07 15:35:44;;;;;;;;;;;;;;;4.67;85.25;99260.03;10329469;23;19923;-76
2022/12/07 15:39:45;;;;;;;;;;;;;;;4.57;85.16;99246.97;10301873;23;19923;-76
2022/12/07 15:48:07;;;;;;;;;;;;;;;4.47;84.86;99261.34;10302263;23;20651;-77
2022/12/07 15:52:28;;;;;;;;;;;;;;;4.43;85.08;99251.88;10305195;23;19919;-77
2022/12/07 15:56:30;;;;;;;;;;;;;;;4.39;85.17;99248.38;10278088;23;19971;-77
2022/12/07 16:00:31;;;;;;;;;;;;;;;4.37;85.73;99237.22;10278133;23;20266;-78
2022/12/07 16:04:33;;;;;;;;;;;;;;;4.35;85.50;99241.47;10279731;23;19931;-78
2022/12/07 16:08:34;;;;;;;;;;;;;;;4.35;85.93;99236.31;10329673;23;19951;-78
2022/12/07 16:12:37;;;;;;;;;;;;;;;4.32;85.72;99228.56;10274622;23;19930;-78
2022/12/07 16:16:39;;;;;;;;;;;;;;;4.24;85.73;99230.97;10278670;23;19993;-78
2022/12/07 16:20:41;;;;;;;;;;;;;;;4.22;85.91;99235.22;10328652;23;19927;-78
2022/12/07 16:24:42;;;;;;;;;;;;;;;4.20;86.55;99241.19;10300170;23;19923;-78
2022/12/07 16:28:44;;;;;;;;;;;;;;;4.16;86.67;99236.84;10303253;23;20259;-78
2022/12/07 16:32:46;;;;;;;;;;;;;;;4.03;86.87;99232.28;10301651;23;19969;-78
2022/12/07 16:36:47;;;;;;;;;;;;;;;3.93;87.33;99221.81;10329970;23;19965;-78
2022/12/07 16:41:06;;;;;;;;;;;;;;;3.83;87.89;99224.22;10301500;23;19924;-78
2022/12/07 16:45:09;;;;;;;;;;;;;;;3.72;88.08;99218.84;10303106;23;19966;-78
2022/12/07 16:49:15;;;;;;;;;;;;;;;3.61;88.27;99217.78;10303293;23;19924;-78
2022/12/07 16:53:22;;;;;;;;;;;;;;;3.43;87.85;99222.53;10297847;23;20202;-78
2022/12/07 16:57:23;;;;;;;;;;;;;;;3.30;88.39;99221.41;10302900;23;19928;-78
2022/12/07 17:01:30;;;;;;;;;;;;;;;3.24;88.65;99227.28;10328698;22;19966;-78
2022/12/07 17:05:40;;;;;;;;;;;;;;;3.18;88.91;99218.56;10303963;23;20378;-78
2022/12/07 17:09:49;;;;;;;;;;;;;;;3.10;89.20;99215.84;10279051;23;20322;-78
2022/12/07 17:18:12;;;;;;;;;;;;;;;2.90;90.38;99217.94;10304650;23;20244;-78
2022/12/07 17:22:15;;;;;;;;;;;;;;;2.83;90.59;99213.47;10302655;23;20500;-79
2022/12/07 17:26:25;;;;;;;;;;;;;;;2.78;91.16;99211.66;10304431;23;19926;-79
2022/12/07 17:30:52;;;;;;;;;;;;;;;2.77;91.74;99204.78;10302261;23;19931;-78
2022/12/07 17:34:54;;;;;;;;;;;;;;;2.73;92.07;99199.59;10279028;23;19923;-78
2022/12/07 17:38:55;;;;;;;;;;;;;;;2.66;91.77;99195.13;10277982;23;19977;-78
2022/12/07 17:42:57;;;;;;;;;;;;;;;2.59;91.83;99195.84;10302538;23;20295;-78
2022/12/07 17:47:02;;;;;;;;;;;;;;;2.52;92.26;99196.53;10299997;23;19927;-77
2022/12/07 17:55:24;;;;;;;;;;;;;;;2.53;93.25;99197.41;10322867;23;19924;-76
2022/12/07 17:59:26;;;;;;;;;;;;;;;2.55;93.70;99185.47;10294693;23;19924;-77
2022/12/07 18:03:27;;;;;;;;;;;;;;;2.55;93.65;99195.75;10296507;23;19919;-77
2022/12/07 18:07:29;;;;;;;;;;;;;;;2.55;94.02;99193.19;10301377;23;20496;-76
2022/12/07 18:11:31;;;;;;;;;;;;;;;2.54;93.77;99186.31;10300176;23;19987;-76
2022/12/07 18:15:33;;;;;;;;;;;;;;;2.60;94.28;99186.44;10327932;23;20015;-77
2022/12/07 18:19:36;;;;;;;;;;;;;;;2.61;94.13;99185.63;10274820;23;19946;-77
2022/12/07 18:23:37;;;;;;;;;;;;;;;2.62;94.48;99187.34;10301709;23;20319;-77
2022/12/07 18:27:39;;;;;;;;;;;;;;;2.66;94.67;99182.31;10327075;23;19959;-76
2022/12/07 18:31:41;;;;;;;;;;;;;;;2.67;94.65;99178.06;10299003;23;19955;-77
2022/12/07 18:35:43;;;;;;;;;;;;;;;2.67;94.44;99175.50;10326745;23;19928;-77
2022/12/07 18:39:44;;;;;;;;;;;;;;;2.60;94.28;99176.19;10299044;23;19924;-76
2022/12/07 18:43:45;;;;;;;;;;;;;;;2.55;94.25;99173.53;10322908;23;19976;-77
2022/12/07 18:47:47;;;;;;;;;;;;;;;2.52;94.58;99172.59;10274171;23;20006;-76
2022/12/07 18:51:48;;;;;;;;;;;;;;;2.50;94.50;99171.69;10298105;23;19924;-76
2022/12/07 18:55:49;;;;;;;;;;;;;;;2.45;94.39;99173.25;10275393;23;19934;-77
2022/12/07 18:59:51;;;;;;;;;;;;;;;2.44;94.87;99180.09;10327662;23;19928;-76
2022/12/07 19:03:52;;;;;;;;;;;;;;;2.47;95.00;99181.84;10301197;23;19977;-77
2022/12/07 19:07:53;;;;;;;;;;;;;;;2.53;95.46;99177.75;10299485;23;20545;-76
2022/12/07 19:11:55;;;;;;;;;;;;;;;2.58;95.72;99170.19;10277513;23;20006;-77
2022/12/07 19:15:57;;;;;;;;;;;;;;;2.62;96.09;99169.41;10302576;23;19992;-76
2022/12/07 19:19:58;;;;;;;;;;;;;;;2.61;95.59;99162.56;10302451;23;20165;-77
2022/12/07 19:24:03;;;;;;;;;;;;;;;2.57;95.67;99159.06;10303567;23;20256;-76
2022/12/07 19:28:05;;;;;;;;;;;;;;;2.58;95.77;99159.94;10301676;23;19924;-76
2022/12/07 19:32:08;;;;;;;;;;;;;;;2.60;95.54;99158.25;10301148;23;20007;-76
2022/12/07 19:36:09;;;;;;;;;;;;;;;2.56;95.11;99157.31;10328269;23;19923;-76
2022/12/07 19:40:11;;;;;;;;;;;;;;;2.56;95.28;99153.91;10302410;23;19935;-76
2022/12/07 19:44:17;;;;;;;;;;;;;;;2.56;95.88;99141.09;10275598;23;19943;-76
2022/12/07 19:48:18;;;;;;;;;;;;;;;2.56;95.78;99141.94;10302030;23;19998;-76
2022/12/07 19:52:20;;;;;;;;;;;;;;;2.58;95.58;99141.97;10301204;23;19951;-76
2022/12/07 19:56:21;;;;;;;;;;;;;;;2.54;95.36;99141.06;10328002;23;20284;-76
2022/12/07 20:00:22;;;;;;;;;;;;;;;2.52;95.34;99145.28;10325895;23;19927;-76
2022/12/07 20:04:26;;;;;;;;;;;;;;;2.54;95.37;99150.44;10300866;23;19923;-76
2022/12/07 20:08:27;;;;;;;;;;;;;;;2.51;94.99;99148.66;10273420;23;19931;-76
2022/12/07 20:16:50;;;;;;;;;;;;;;;2.53;95.05;99143.59;10261892;23;20276;-77
2022/12/07 20:20:55;;;;;;;;;;;;;;;2.56;94.90;99141.94;10228032;23;19924;-77
2022/12/07 20:24:56;;;;;;;;;;;;;;;2.61;94.91;99134.38;10227450;23;19932;-76
2022/12/07 20:28:58;;;;;;;;;;;;;;;2.65;95.05;99138.72;10227850;23;19978;-77
2022/12/07 20:33:13;;;;;;;;;;;;;;;2.70;95.22;99134.59;10225786;23;19920;-78
2022/12/07 20:37:38;;;;;;;;;;;;;;;2.71;94.73;99131.19;10231456;23;19921;-77
2022/12/07 20:46:10;;;;;;;;;;;;;;;2.64;94.41;99129.31;10220075;23;19975;-78
2022/12/07 20:50:12;;;;;;;;;;;;;;;2.59;94.52;99128.34;10228570;23;20006;-78
2022/12/07 20:54:14;;;;;;;;;;;;;;;2.57;94.45;99132.56;10205460;23;20263;-78
2022/12/07 20:58:15;;;;;;;;;;;;;;;2.60;95.10;99124.94;10202951;23;19928;-78
2022/12/07 21:02:16;;;;;;;;;;;;;;;2.63;95.17;99130.13;10208225;23;19931;-78
2022/12/07 21:06:18;;;;;;;;;;;;;;;2.66;94.98;99120.81;10275373;23;19927;-77
2022/12/07 21:10:20;;;;;;;;;;;;;;;2.70;94.90;99114.94;10247545;23;19962;-77
2022/12/07 21:14:21;;;;;;;;;;;;;;;2.75;95.33;99102.22;10250660;23;19923;-76
2022/12/07 21:18:22;;;;;;;;;;;;;;;2.77;94.99;99104.81;10269159;23;20011;-77
2022/12/07 21:22:24;;;;;;;;;;;;;;;2.79;94.89;99098.03;10276407;23;19978;-77
2022/12/07 21:26:26;;;;;;;;;;;;;;;2.82;95.30;99098.09;10275320;23;19931;-77
2022/12/07 21:30:28;;;;;;;;;;;;;;;2.82;94.75;99092.97;10242017;23;19932;-77
2022/12/07 21:34:50;;;;;;;;;;;;;;;2.83;95.13;99089.56;10255167;23;19924;-77
2022/12/07 21:38:51;;;;;;;;;;;;;;;2.86;95.38;99094.75;10222787;23;19923;-76
2022/12/07 21:42:53;;;;;;;;;;;;;;;2.86;95.02;99084.50;10223454;23;19970;-75
2022/12/07 21:46:54;;;;;;;;;;;;;;;2.83;95.07;99085.28;10242197;23;19978;-75
2022/12/07 21:51:01;;;;;;;;;;;;;;;2.84;95.20;99081.91;10275207;23;19923;-76
2022/12/07 21:55:03;;;;;;;;;;;;;;;2.84;95.43;99076.75;10275526;23;19974;-76
2022/12/07 21:59:12;;;;;;;;;;;;;;;2.85;94.89;99080.19;10227638;23;20293;-76
2022/12/07 22:03:14;;;;;;;;;;;;;;;2.89;94.82;99076.88;10241599;23;19931;-76
2022/12/07 22:07:15;;;;;;;;;;;;;;;2.91;94.61;99073.53;10278261;23;19927;-77
2022/12/07 22:11:17;;;;;;;;;;;;;;;2.94;94.64;99071.00;10252496;23;19967;-77
2022/12/07 22:15:18;;;;;;;;;;;;;;;2.99;94.46;99064.28;10245641;23;19989;-77
2022/12/07 22:19:19;;;;;;;;;;;;;;;3.00;94.26;99062.56;10253897;23;20012;-77
2022/12/07 22:23:21;;;;;;;;;;;;;;;3.03;94.23;99062.63;10226114;23;19946;-76
2022/12/07 22:27:23;;;;;;;;;;;;;;;3.07;94.22;99069.56;10222848;23;19950;-76
2022/12/07 22:31:24;;;;;;;;;;;;;;;3.06;93.87;99062.72;10241099;23;20238;-76
2022/12/07 22:35:26;;;;;;;;;;;;;;;3.08;93.60;99067.88;10223446;23;19928;-76
2022/12/07 22:39:27;;;;;;;;;;;;;;;3.09;93.77;99056.78;10246118;23;19955;-76
2022/12/07 22:43:29;;;;;;;;;;;;;;;3.11;93.42;99052.53;10225327;23;19924;-76
2022/12/07 22:47:30;;;;;;;;;;;;;;;3.13;93.29;99053.44;10251417;23;19966;-76
2022/12/07 22:51:33;;;;;;;;;;;;;;;3.12;93.12;99041.44;10275725;23;20364;-76
2022/12/07 22:55:37;;;;;;;;;;;;;;;3.14;92.97;99044.91;10249994;23;19924;-76
2022/12/07 22:59:39;;;;;;;;;;;;;;;3.17;92.90;99043.25;10224491;23;19979;-76
2022/12/07 23:03:40;;;;;;;;;;;;;;;3.21;93.00;99034.78;10242561;23;19934;-75
2022/12/07 23:07:41;;;;;;;;;;;;;;;3.21;92.74;99031.34;10274241;23;19923;-75
2022/12/07 23:16:12;;;;;;;;;;;;;;;3.19;92.92;99020.19;10243707;23;19989;-76
2022/12/07 23:20:13;;;;;;;;;;;;;;;3.23;93.14;99028.00;10245524;23;19939;-76
2022/12/07 23:24:15;;;;;;;;;;;;;;;3.23;93.14;99012.59;10223825;23;19924;-76
2022/12/07 23:28:16;;;;;;;;;;;;;;;3.24;93.03;99018.59;10223861;23;19959;-75
2022/12/07 23:32:18;;;;;;;;;;;;;;;3.21;93.12;99013.38;10240453;23;19919;-76
2022/12/07 23:36:21;;;;;;;;;;;;;;;3.19;93.36;99010.78;10222226;23;19924;-76
2022/12/07 23:40:25;;;;;;;;;;;;;;;3.19;93.41;99003.09;10271968;23;19927;-76
2022/12/07 23:44:26;;;;;;;;;;;;;;;3.18;93.93;99001.38;10224233;23;20010;-75
2022/12/07 23:48:28;;;;;;;;;;;;;;;3.19;93.91;98997.09;10245592;23;19955;-76
2022/12/07 23:52:30;;;;;;;;;;;;;;;3.17;93.96;98994.50;10225902;23;20006;-75
2022/12/07 23:56:32;;;;;;;;;;;;;;;3.15;94.27;99000.44;10251271;23;20445;-75
